Time;durP1;ratioP1;P1;durP2;ratioP2;P2;SDS_P1;SDS_P2;PMS_P1;PMS_P2;Temp;Humidity;BMP_temperature;BMP_pressure;BME280_temperature;BME280_humidity;BME280_pressure;Samples;Min_cycle;Max_cycle;Signal;HPM_P1;HPM_P2
2023/07/03 00:00:32;;;;;;;10.20;9.90;;;15.80;99.90;;;;;;4945805;28;20325;-80
2023/07/03 00:03:02;;;;;;;9.95;9.65;;;15.80;99.90;;;;;;4945384;28;20243;-80
2023/07/03 00:05:30;;;;;;;10.15;9.85;;;15.80;99.90;;;;;;4945344;28;20282;-81
2023/07/03 00:07:59;;;;;;;10.02;9.73;;;15.70;99.90;;;;;;4945299;28;20215;-79
2023/07/03 00:10:29;;;;;;;10.45;10.15;;;15.60;99.90;;;;;;4945128;28;20235;-79
2023/07/03 00:12:57;;;;;;;10.23;9.93;;;15.50;99.90;;;;;;4944631;28;20230;-79
2023/07/03 00:15:28;;;;;;;10.18;9.88;;;15.50;99.90;;;;;;4945027;29;20235;-80
2023/07/03 00:17:56;;;;;;;9.90;9.60;;;15.50;99.90;;;;;;4946870;29;20260;-79
2023/07/03 00:20:30;;;;;;;10.30;10.00;;;15.40;99.90;;;;;;4947803;29;20230;-81
2023/07/03 00:22:58;;;;;;;10.48;10.18;;;15.40;99.90;;;;;;4948029;29;20347;-80
2023/07/03 00:25:28;;;;;;;10.27;9.98;;;15.30;99.90;;;;;;4962812;28;20270;-80
2023/07/03 00:27:57;;;;;;;10.50;10.20;;;15.30;99.90;;;;;;4965155;28;20261;-80
2023/07/03 00:30:26;;;;;;;10.32;10.02;;;15.20;99.90;;;;;;4972291;28;20229;-80
2023/07/03 00:32:55;;;;;;;10.25;9.95;;;15.20;99.90;;;;;;4977254;28;20238;-82
2023/07/03 00:35:24;;;;;;;10.30;10.00;;;15.10;99.90;;;;;;4977821;28;20254;-80
2023/07/03 00:37:55;;;;;;;10.15;9.85;;;15.10;99.90;;;;;;4957401;28;20279;-80
2023/07/03 00:40:23;;;;;;;10.15;9.85;;;15.10;99.90;;;;;;4945907;28;20271;-81
2023/07/03 00:42:55;;;;;;;10.10;9.80;;;15.00;99.90;;;;;;4944881;28;20322;-81
2023/07/03 00:45:23;;;;;;;10.30;10.00;;;15.10;99.90;;;;;;4945914;29;20238;-80
2023/07/03 00:47:53;;;;;;;10.23;9.93;;;15.10;99.90;;;;;;4945765;28;20232;-80
2023/07/03 00:50:22;;;;;;;10.15;9.85;;;15.10;99.90;;;;;;4946019;29;20243;-81
2023/07/03 00:53:00;;;;;;;10.10;9.80;;;15.20;99.90;;;;;;4944788;29;20273;-80
2023/07/03 00:55:28;;;;;;;10.25;9.95;;;15.20;99.90;;;;;;4944898;29;20226;-79
2023/07/03 00:58:00;;;;;;;10.20;9.90;;;15.30;99.90;;;;;;4944492;29;20317;-80
2023/07/03 01:00:39;;;;;;;10.00;9.70;;;15.30;99.90;;;;;;4945038;28;20262;-80
2023/07/03 01:03:12;;;;;;;9.77;9.48;;;15.40;99.90;;;;;;4943489;29;20243;-81
2023/07/03 01:05:48;;;;;;;10.00;9.70;;;15.40;99.90;;;;;;4945193;29;20291;-80
2023/07/03 01:08:19;;;;;;;9.90;9.60;;;15.40;99.90;;;;;;4944869;29;20231;-79
2023/07/03 01:10:47;;;;;;;9.95;9.65;;;15.50;99.90;;;;;;4945345;29;20245;-81
2023/07/03 01:13:25;;;;;;;10.07;9.77;;;15.50;99.90;;;;;;4946373;29;20243;-81
2023/07/03 01:15:54;;;;;;;9.98;9.68;;;15.60;99.90;;;;;;4938982;29;20302;-80
2023/07/03 01:18:22;;;;;;;10.05;9.75;;;15.60;99.90;;;;;;4942771;29;20283;-80
2023/07/03 01:21:01;;;;;;;10.02;9.73;;;15.60;99.90;;;;;;4943792;29;20330;-81
2023/07/03 01:23:37;;;;;;;10.18;9.88;;;15.60;99.90;;;;;;4945826;29;20234;-80
2023/07/03 01:26:14;;;;;;;10.07;9.77;;;15.70;99.90;;;;;;4946422;29;20255;-81
2023/07/03 01:28:45;;;;;;;9.98;9.68;;;15.80;99.90;;;;;;4946949;29;20242;-80
2023/07/03 01:31:14;;;;;;;10.00;9.70;;;15.80;99.90;;;;;;4948763;29;20246;-81
2023/07/03 01:33:44;;;;;;;10.18;9.88;;;15.90;99.90;;;;;;4954196;29;20242;-80
2023/07/03 01:36:13;;;;;;;9.98;9.68;;;15.90;99.90;;;;;;4960948;28;20218;-79
2023/07/03 01:38:43;;;;;;;10.00;9.70;;;15.90;99.90;;;;;;4960720;28;20244;-81
2023/07/03 01:41:19;;;;;;;9.80;9.50;;;15.90;99.90;;;;;;4960514;28;20237;-80
2023/07/03 01:43:49;;;;;;;9.80;9.50;;;15.90;99.90;;;;;;4959869;28;20257;-80
2023/07/03 01:46:19;;;;;;;9.80;9.50;;;15.80;99.90;;;;;;4959225;28;20242;-81
2023/07/03 01:48:47;;;;;;;10.00;9.70;;;15.80;99.90;;;;;;4957351;28;20233;-80
2023/07/03 01:51:24;;;;;;;10.10;9.80;;;15.80;99.90;;;;;;4960683;28;20295;-80
2023/07/03 01:54:01;;;;;;;9.90;9.60;;;15.70;99.90;;;;;;4960999;28;20250;-80
2023/07/03 01:56:34;;;;;;;9.93;9.63;;;15.70;99.90;;;;;;4960791;28;20219;-80
2023/07/03 01:59:10;;;;;;;10.00;9.70;;;15.60;99.90;;;;;;4960741;28;20295;-80
2023/07/03 02:01:46;;;;;;;10.00;9.70;;;15.60;99.90;;;;;;4960219;28;20291;-80
2023/07/03 02:04:23;;;;;;;10.40;10.10;;;15.50;99.90;;;;;;4948845;28;20261;-80
2023/07/03 02:06:53;;;;;;;10.60;10.30;;;15.40;99.90;;;;;;4946738;28;20223;-80
2023/07/03 02:09:21;;;;;;;10.35;10.05;;;15.40;99.90;;;;;;4946165;29;20235;-80
2023/07/03 02:11:56;;;;;;;10.48;10.18;;;15.30;99.90;;;;;;4943949;28;20239;-80
2023/07/03 02:14:26;;;;;;;10.30;10.00;;;15.30;99.90;;;;;;4947115;28;20310;-81
2023/07/03 02:16:55;;;;;;;10.40;10.10;;;15.30;99.90;;;;;;4947866;28;20255;-80
2023/07/03 02:19:28;;;;;;;10.32;10.02;;;15.20;99.90;;;;;;4947229;28;20262;-81
2023/07/03 02:21:58;;;;;;;10.60;10.30;;;15.20;99.90;;;;;;4947247;28;20348;-81
2023/07/03 02:24:28;;;;;;;10.52;10.23;;;15.20;99.90;;;;;;4948941;28;20296;-82
2023/07/03 02:26:58;;;;;;;10.57;10.27;;;15.10;99.90;;;;;;4946710;28;20258;-79
2023/07/03 02:29:27;;;;;;;10.30;10.00;;;15.10;99.90;;;;;;4946640;29;20265;-81
2023/07/03 02:31:54;;;;;;;10.15;9.85;;;15.10;99.90;;;;;;4946734;28;20266;-80
2023/07/03 02:34:23;;;;;;;10.30;10.00;;;15.10;99.90;;;;;;4947848;28;20245;-81
2023/07/03 02:36:53;;;;;;;10.60;10.30;;;15.00;99.90;;;;;;4950398;28;20255;-79
2023/07/03 02:39:22;;;;;;;10.50;10.20;;;15.00;99.90;;;;;;4946916;28;20311;-81
2023/07/03 02:41:52;;;;;;;10.00;9.70;;;15.10;99.90;;;;;;4947715;28;20242;-82
2023/07/03 02:44:23;;;;;;;10.10;9.80;;;15.10;99.90;;;;;;4946895;29;20342;-82
2023/07/03 02:46:52;;;;;;;10.60;10.30;;;15.10;99.90;;;;;;4946485;29;20225;-79
2023/07/03 02:49:22;;;;;;;10.40;10.10;;;15.20;99.90;;;;;;4946243;28;20242;-81
2023/07/03 02:51:50;;;;;;;10.50;10.20;;;15.20;99.90;;;;;;4946294;28;20254;-81
2023/07/03 02:54:18;;;;;;;10.27;9.98;;;15.30;99.90;;;;;;4947196;28;20237;-81
2023/07/03 02:56:46;;;;;;;10.40;10.10;;;15.30;99.90;;;;;;4947126;28;20273;-81
2023/07/03 02:59:14;;;;;;;10.48;10.18;;;15.40;99.90;;;;;;4949771;29;20256;-79
2023/07/03 03:01:46;;;;;;;10.50;10.20;;;15.40;99.90;;;;;;4947853;28;20253;-80
2023/07/03 03:04:16;;;;;;;10.32;10.02;;;15.40;99.90;;;;;;4948931;28;20382;-81
2023/07/03 03:06:44;;;;;;;10.70;10.40;;;15.40;99.90;;;;;;4950248;28;20253;-80
2023/07/03 03:09:12;;;;;;;10.25;9.95;;;15.40;99.90;;;;;;4949368;28;20234;-81
2023/07/03 03:11:40;;;;;;;10.63;10.32;;;15.50;99.90;;;;;;4947898;28;20429;-81
2023/07/03 03:14:07;;;;;;;10.80;10.50;;;15.50;99.90;;;;;;4947744;28;20245;-81
2023/07/03 03:16:35;;;;;;;10.70;10.40;;;15.50;99.90;;;;;;4950385;28;20234;-80
2023/07/03 03:19:09;;;;;;;10.80;10.50;;;15.50;99.90;;;;;;4949052;28;20235;-82
2023/07/03 03:21:38;;;;;;;10.73;10.43;;;15.60;99.90;;;;;;4947302;28;20260;-81
2023/07/03 03:24:06;;;;;;;10.55;10.25;;;15.60;99.90;;;;;;4945422;28;20263;-82
2023/07/03 03:26:35;;;;;;;10.32;10.02;;;15.60;99.90;;;;;;4937916;29;20322;-80
2023/07/03 03:29:04;;;;;;;10.30;10.00;;;15.60;99.90;;;;;;4945316;28;20223;-81
2023/07/03 03:31:33;;;;;;;10.40;10.10;;;15.60;99.90;;;;;;4946572;28;20245;-81
2023/07/03 03:34:02;;;;;;;10.30;10.00;;;15.60;99.90;;;;;;4946032;28;20234;-80
2023/07/03 03:36:37;;;;;;;10.18;9.88;;;15.60;99.90;;;;;;4946738;28;20238;-81
2023/07/03 03:39:04;;;;;;;10.25;9.95;;;15.60;99.90;;;;;;4946026;29;20322;-80
2023/07/03 03:41:32;;;;;;;10.20;9.90;;;15.70;99.90;;;;;;4945396;29;20245;-81
2023/07/03 03:44:01;;;;;;;10.00;9.70;;;15.70;99.90;;;;;;4946543;29;20239;-81
2023/07/03 03:46:30;;;;;;;10.50;10.20;;;15.70;99.90;;;;;;4946338;28;20237;-81
2023/07/03 03:49:00;;;;;;;10.05;9.75;;;15.70;99.90;;;;;;4946218;29;20265;-82
2023/07/03 03:51:29;;;;;;;10.20;9.90;;;15.70;99.90;;;;;;4945476;28;20238;-81
2023/07/03 03:54:00;;;;;;;10.10;9.80;;;15.70;99.90;;;;;;4946108;28;20234;-81
2023/07/03 03:56:27;;;;;;;10.27;9.98;;;15.70;99.90;;;;;;4945905;28;20265;-81
2023/07/03 03:58:55;;;;;;;10.30;10.00;;;15.80;99.90;;;;;;4948299;28;20242;-81
2023/07/03 04:01:24;;;;;;;10.50;10.20;;;15.80;99.90;;;;;;4945178;29;20249;-81
2023/07/03 04:03:56;;;;;;;10.00;9.70;;;15.80;99.90;;;;;;4944429;28;20241;-80
2023/07/03 04:06:25;;;;;;;10.13;9.82;;;15.90;99.90;;;;;;4944624;29;20253;-80
2023/07/03 04:08:58;;;;;;;10.15;9.85;;;15.90;99.90;;;;;;4946035;29;20239;-81
2023/07/03 04:11:28;;;;;;;9.98;9.68;;;15.90;99.90;;;;;;4946129;28;20258;-82
2023/07/03 04:13:55;;;;;;;10.10;9.80;;;16.00;99.90;;;;;;4946145;29;20310;-80
2023/07/03 04:16:24;;;;;;;10.32;10.02;;;16.00;99.90;;;;;;4945300;28;20355;-80
2023/07/03 04:18:51;;;;;;;10.23;9.93;;;16.10;99.90;;;;;;4944425;28;20265;-81
2023/07/03 04:21:20;;;;;;;10.43;10.13;;;16.20;99.90;;;;;;4945639;29;20234;-81
2023/07/03 04:23:48;;;;;;;10.00;9.70;;;16.20;99.90;;;;;;4946027;28;20253;-81
2023/07/03 04:26:16;;;;;;;10.27;9.98;;;16.30;99.90;;;;;;4950409;29;20237;-80
2023/07/03 04:28:46;;;;;;;10.20;9.90;;;16.30;99.90;;;;;;4950070;29;20313;-80
2023/07/03 04:31:13;;;;;;;10.45;10.15;;;16.40;99.90;;;;;;4951776;29;20241;-80
2023/07/03 04:33:43;;;;;;;10.07;9.77;;;16.50;99.90;;;;;;4952350;28;20302;-80
2023/07/03 04:36:13;;;;;;;10.60;10.30;;;16.50;99.90;;;;;;4951964;28;20242;-82
2023/07/03 04:38:41;;;;;;;10.60;10.30;;;16.50;99.90;;;;;;4952033;29;20229;-80
2023/07/03 04:41:11;;;;;;;10.65;10.35;;;16.50;99.90;;;;;;4951954;29;20269;-81
2023/07/03 04:43:48;;;;;;;10.40;10.10;;;16.60;99.90;;;;;;4953683;29;20290;-82
2023/07/03 04:46:25;;;;;;;10.70;10.40;;;16.60;99.90;;;;;;4951676;29;20409;-80
2023/07/03 04:48:59;;;;;;;10.30;10.00;;;16.60;99.90;;;;;;4957136;29;20234;-81
2023/07/03 04:51:30;;;;;;;10.40;10.10;;;16.70;99.90;;;;;;4952333;28;20238;-80
2023/07/03 04:53:59;;;;;;;10.20;9.90;;;16.80;99.90;;;;;;4954885;28;20242;-80
2023/07/03 04:56:27;;;;;;;10.63;10.32;;;16.80;99.90;;;;;;4948272;29;20238;-80
2023/07/03 04:58:55;;;;;;;10.55;10.25;;;16.90;99.90;;;;;;4944001;28;20321;-79
2023/07/03 05:01:25;;;;;;;10.50;10.20;;;16.90;99.90;;;;;;4944667;28;20258;-80
2023/07/03 05:03:54;;;;;;;10.48;10.18;;;16.90;99.90;;;;;;4945581;28;20317;-79
2023/07/03 05:06:23;;;;;;;10.55;10.25;;;17.00;99.90;;;;;;4942873;28;20246;-80
2023/07/03 05:08:51;;;;;;;10.70;10.40;;;17.00;99.90;;;;;;4942692;28;20302;-80
2023/07/03 05:11:19;;;;;;;10.80;10.50;;;17.00;99.90;;;;;;4944162;28;20235;-80
2023/07/03 05:13:48;;;;;;;10.57;10.27;;;17.10;99.90;;;;;;4943574;28;20322;-79
2023/07/03 05:16:16;;;;;;;10.65;10.35;;;17.10;99.90;;;;;;4944003;28;20230;-79
2023/07/03 05:18:46;;;;;;;10.60;10.30;;;17.20;99.90;;;;;;4944898;28;20246;-80
2023/07/03 05:21:13;;;;;;;10.70;10.40;;;17.20;99.90;;;;;;4954954;28;20241;-80
2023/07/03 05:23:41;;;;;;;10.80;10.50;;;17.30;99.90;;;;;;4942408;28;20258;-79
2023/07/03 05:26:09;;;;;;;10.88;10.57;;;17.30;99.90;;;;;;4942989;28;20310;-80
2023/07/03 05:28:37;;;;;;;10.43;10.13;;;17.40;99.90;;;;;;4942693;29;20302;-81
2023/07/03 05:31:05;;;;;;;10.52;10.23;;;17.40;99.90;;;;;;4944086;28;20299;-77
2023/07/03 05:33:33;;;;;;;10.95;10.65;;;17.50;99.90;;;;;;4943718;29;20238;-79
2023/07/03 05:36:04;;;;;;;10.23;9.93;;;17.50;99.90;;;;;;4943436;28;20246;-80
2023/07/03 05:38:34;;;;;;;10.40;10.10;;;17.60;99.90;;;;;;4942667;28;20306;-79
2023/07/03 05:41:02;;;;;;;10.38;10.07;;;17.70;99.90;;;;;;4943548;29;20234;-80
2023/07/03 05:43:30;;;;;;;10.20;9.90;;;17.70;99.90;;;;;;4943921;28;20246;-80
2023/07/03 05:45:57;;;;;;;10.07;9.77;;;17.80;99.90;;;;;;4944193;29;20713;-80
2023/07/03 05:48:28;;;;;;;10.10;9.80;;;17.80;99.90;;;;;;4947496;29;20231;-80
2023/07/03 05:50:55;;;;;;;10.27;9.98;;;17.90;99.90;;;;;;4949601;29;20270;-80
2023/07/03 05:53:24;;;;;;;10.18;9.88;;;17.90;99.90;;;;;;4949957;28;20285;-81
2023/07/03 05:55:56;;;;;;;10.30;10.00;;;18.00;99.90;;;;;;4947519;29;20234;-80
2023/07/03 05:58:24;;;;;;;10.13;9.82;;;18.00;99.90;;;;;;4947280;28;20242;-80
2023/07/03 06:00:52;;;;;;;9.88;9.57;;;18.10;99.90;;;;;;4946663;28;20242;-80
2023/07/03 06:03:20;;;;;;;10.10;9.80;;;18.10;99.90;;;;;;4946348;29;20234;-80
2023/07/03 06:05:49;;;;;;;9.52;9.23;;;18.10;99.90;;;;;;4946633;28;20278;-80
2023/07/03 06:08:17;;;;;;;9.30;9.00;;;18.20;99.90;;;;;;4947758;29;20322;-80
2023/07/03 06:10:46;;;;;;;9.88;9.57;;;18.20;99.90;;;;;;4946564;29;20263;-80
2023/07/03 06:13:14;;;;;;;9.70;9.40;;;18.30;99.90;;;;;;4948011;29;20242;-81
2023/07/03 06:15:42;;;;;;;9.38;9.07;;;18.30;99.90;;;;;;4945942;29;20231;-81
2023/07/03 06:18:10;;;;;;;9.70;9.40;;;18.30;99.90;;;;;;4946476;29;20235;-81
2023/07/03 06:20:38;;;;;;;9.60;9.30;;;18.30;99.90;;;;;;4945694;29;20227;-81
2023/07/03 06:23:05;;;;;;;9.77;9.48;;;18.40;99.90;;;;;;4946048;29;20238;-81
2023/07/03 06:25:33;;;;;;;9.90;9.60;;;18.50;99.90;;;;;;4944844;28;20286;-81
2023/07/03 06:28:03;;;;;;;9.60;9.30;;;18.60;99.90;;;;;;4958735;28;20235;-80
2023/07/03 06:30:30;;;;;;;9.68;9.38;;;18.60;99.90;;;;;;4944339;28;20294;-79
2023/07/03 06:32:58;;;;;;;9.55;9.25;;;18.60;99.90;;;;;;4945789;29;20262;-80
2023/07/03 06:35:26;;;;;;;9.68;9.38;;;18.60;99.90;;;;;;4947839;29;20273;-79
2023/07/03 06:37:55;;;;;;;9.73;9.43;;;18.70;99.90;;;;;;4950705;29;20334;-80
2023/07/03 06:40:23;;;;;;;9.75;9.45;;;18.80;99.90;;;;;;4943805;29;20290;-80
2023/07/03 06:42:53;;;;;;;9.95;9.65;;;18.80;99.90;;;;;;4944975;29;20241;-80
2023/07/03 06:45:22;;;;;;;10.20;9.90;;;18.90;99.90;;;;;;4945107;29;20317;-79
2023/07/03 06:47:50;;;;;;;9.75;9.45;;;18.90;99.90;;;;;;4945423;28;20223;-80
2023/07/03 06:50:17;;;;;;;9.90;9.60;;;19.00;99.90;;;;;;4947354;29;20294;-79
2023/07/03 06:52:47;;;;;;;9.75;9.45;;;19.00;99.90;;;;;;4945782;29;20294;-80
2023/07/03 06:55:17;;;;;;;9.50;9.20;;;19.10;99.90;;;;;;4945649;29;20235;-80
2023/07/03 06:57:45;;;;;;;9.90;9.60;;;19.30;99.90;;;;;;4944925;29;20239;-78
2023/07/03 07:00:14;;;;;;;9.80;9.50;;;19.40;99.90;;;;;;4944711;28;20246;-80
2023/07/03 07:02:43;;;;;;;9.60;9.30;;;19.40;99.90;;;;;;4943325;29;20261;-79
2023/07/03 07:05:11;;;;;;;9.40;9.10;;;19.40;99.90;;;;;;4939392;29;20267;-78
2023/07/03 07:07:38;;;;;;;9.95;9.65;;;19.40;99.90;;;;;;4939720;29;20261;-79
2023/07/03 07:10:08;;;;;;;10.18;9.88;;;19.50;99.90;;;;;;4939296;29;20235;-78
2023/07/03 07:12:35;;;;;;;10.10;9.80;;;19.60;99.90;;;;;;4939209;29;20296;-78
2023/07/03 07:15:03;;;;;;;10.00;9.70;;;19.80;99.90;;;;;;4940857;29;20237;-79
2023/07/03 07:17:31;;;;;;;10.20;9.90;;;19.80;99.90;;;;;;4941895;29;20230;-78
2023/07/03 07:20:00;;;;;;;10.15;9.85;;;19.90;99.90;;;;;;4941787;28;20333;-78
2023/07/03 07:22:27;;;;;;;10.38;10.07;;;19.90;99.90;;;;;;4941412;29;20249;-79
2023/07/03 07:24:55;;;;;;;10.13;9.82;;;19.90;99.90;;;;;;4940767;28;20239;-78
2023/07/03 07:27:22;;;;;;;10.38;10.07;;;19.90;99.90;;;;;;4941362;28;20245;-79
2023/07/03 07:29:50;;;;;;;10.30;10.00;;;20.00;99.90;;;;;;4941294;28;20262;-78
2023/07/03 07:32:18;;;;;;;10.43;10.13;;;20.00;99.90;;;;;;4945103;28;20311;-78
2023/07/03 07:34:46;;;;;;;10.40;10.10;;;20.10;99.90;;;;;;4940763;28;20238;-79
2023/07/03 07:37:15;;;;;;;10.57;10.27;;;20.10;99.90;;;;;;4940601;28;20243;-78
2023/07/03 07:39:43;;;;;;;10.32;10.02;;;20.20;99.90;;;;;;4941131;28;20333;-78
2023/07/03 07:42:11;;;;;;;10.30;10.00;;;20.30;99.90;;;;;;4941908;28;20337;-79
2023/07/03 07:44:39;;;;;;;10.35;10.05;;;20.40;99.90;;;;;;4941509;28;20281;-79
2023/07/03 07:47:09;;;;;;;9.98;9.68;;;20.40;99.90;;;;;;4941203;28;20266;-78
2023/07/03 07:49:38;;;;;;;9.98;9.68;;;20.40;99.90;;;;;;4941027;29;20238;-78
2023/07/03 07:52:07;;;;;;;10.38;10.07;;;20.50;99.90;;;;;;4942035;29;20282;-79
2023/07/03 07:54:37;;;;;;;10.25;9.95;;;20.60;99.90;;;;;;4940748;28;20249;-78
2023/07/03 07:57:05;;;;;;;10.10;9.80;;;20.80;99.90;;;;;;4942121;29;20227;-79
2023/07/03 07:59:35;;;;;;;10.20;9.90;;;20.90;99.90;;;;;;4942392;29;20249;-79
2023/07/03 08:02:09;;;;;;;10.05;9.75;;;20.90;99.90;;;;;;4895002;29;1440606;-80
2023/07/03 08:04:37;;;;;;;10.30;10.00;;;20.90;99.90;;;;;;4945594;29;20233;-81
2023/07/03 08:07:05;;;;;;;10.40;10.10;;;21.00;99.90;;;;;;4937825;29;20220;-80
2023/07/03 08:09:33;;;;;;;10.60;10.30;;;21.10;99.90;;;;;;4935560;29;20243;-80
2023/07/03 08:12:07;;;;;;;10.45;10.15;;;21.30;99.90;;;;;;4946143;28;20302;-81
2023/07/03 08:14:35;;;;;;;10.50;10.20;;;21.40;99.90;;;;;;4946880;28;20238;-81
2023/07/03 08:17:02;;;;;;;10.40;10.10;;;21.60;99.90;;;;;;4946647;29;20223;-80
2023/07/03 08:19:31;;;;;;;10.60;10.30;;;21.70;99.90;;;;;;4946966;28;20273;-80
2023/07/03 08:21:59;;;;;;;10.30;10.00;;;21.70;99.90;;;;;;4946343;28;20231;-80
2023/07/03 08:24:26;;;;;;;10.10;9.80;;;21.80;99.90;;;;;;4945485;28;20233;-80
2023/07/03 08:26:54;;;;;;;10.05;9.75;;;21.70;99.90;;;;;;4946137;28;20246;-81
2023/07/03 08:29:24;;;;;;;10.00;9.70;;;21.90;99.90;;;;;;4949890;28;20250;-81
2023/07/03 08:31:51;;;;;;;9.98;9.68;;;22.00;99.90;;;;;;4947185;28;20259;-81
2023/07/03 08:34:20;;;;;;;9.85;9.55;;;21.90;99.90;;;;;;4948286;28;20300;-82
2023/07/03 08:36:50;;;;;;;9.70;9.40;;;21.70;99.90;;;;;;4947298;28;20223;-80
2023/07/03 08:39:18;;;;;;;10.20;9.90;;;21.50;99.90;;;;;;4947273;29;20234;-80
2023/07/03 08:41:58;;;;;;;10.10;9.80;;;21.50;99.90;;;;;;4947471;28;20234;-80
2023/07/03 08:44:29;;;;;;;9.63;9.32;;;21.30;99.90;;;;;;4946943;28;20289;-81
2023/07/03 08:46:59;;;;;;;9.90;9.60;;;21.20;99.90;;;;;;4946721;29;20306;-82
2023/07/03 08:49:28;;;;;;;9.88;9.57;;;21.30;99.90;;;;;;4947712;28;20322;-80
2023/07/03 08:52:07;;;;;;;10.32;10.02;;;21.20;99.90;;;;;;4948453;28;20237;-82
2023/07/03 08:54:38;;;;;;;10.07;9.77;;;21.30;99.90;;;;;;4946860;29;20234;-79
2023/07/03 08:57:07;;;;;;;9.95;9.65;;;21.30;99.90;;;;;;4948682;29;20233;-80
2023/07/03 08:59:36;;;;;;;9.90;9.60;;;21.30;99.90;;;;;;4946050;29;20253;-79
2023/07/03 09:02:20;;;;;;;9.88;9.57;;;21.30;99.90;;;;;;4946248;29;20298;-79
2023/07/03 09:05:13;;;;;;;9.60;9.30;;;21.40;99.90;;;;;;4946926;29;20246;-78
2023/07/03 09:07:46;;;;;;;9.52;9.23;;;21.50;99.90;;;;;;4948065;29;20309;-79
2023/07/03 09:10:19;;;;;;;9.80;9.50;;;21.50;99.90;;;;;;4955652;29;20242;-79
2023/07/03 09:12:55;;;;;;;9.57;9.27;;;21.70;99.90;;;;;;4959231;28;20238;-80
2023/07/03 09:15:29;;;;;;;10.40;10.10;;;22.00;99.90;;;;;;4958712;28;20291;-79
2023/07/03 09:17:59;;;;;;;10.07;9.77;;;22.30;99.90;;;;;;4959575;28;20266;-78
2023/07/03 09:20:29;;;;;;;10.07;9.77;;;22.30;99.90;;;;;;4959628;28;20226;-79
2023/07/03 09:23:05;;;;;;;10.32;10.02;;;22.10;99.90;;;;;;4972230;28;20261;-79
2023/07/03 09:25:41;;;;;;;10.30;10.00;;;22.10;99.90;;;;;;4981152;28;20229;-79
2023/07/03 09:28:11;;;;;;;10.30;10.00;;;22.20;99.90;;;;;;4979593;28;20281;-79
2023/07/03 09:30:40;;;;;;;10.32;10.02;;;22.30;99.90;;;;;;4978033;28;20250;-78
2023/07/03 09:33:08;;;;;;;10.00;9.70;;;22.40;99.90;;;;;;4977480;28;20252;-79
2023/07/03 09:35:40;;;;;;;10.07;9.77;;;22.40;99.90;;;;;;4976892;28;20302;-79
2023/07/03 09:38:14;;;;;;;10.07;9.77;;;22.50;99.90;;;;;;4978895;28;20249;-80
2023/07/03 09:40:45;;;;;;;9.98;9.68;;;22.60;99.90;;;;;;4972183;28;20285;-80
2023/07/03 09:43:19;;;;;;;9.95;9.65;;;22.40;99.90;;;;;;4968469;28;20230;-80
2023/07/03 09:45:56;;;;;;;10.05;9.75;;;22.20;99.90;;;;;;4968020;28;20324;-80
2023/07/03 09:48:26;;;;;;;10.00;9.70;;;22.00;99.90;;;;;;4947389;29;20242;-79
2023/07/03 09:50:55;;;;;;;10.00;9.70;;;21.80;99.90;;;;;;4948856;28;20311;-81
2023/07/03 09:53:26;;;;;;;9.90;9.60;;;21.80;99.90;;;;;;4948197;29;20249;-79
2023/07/03 09:55:59;;;;;;;9.80;9.50;;;21.90;99.90;;;;;;4948636;29;20242;-80
2023/07/03 09:58:28;;;;;;;9.80;9.50;;;22.00;99.90;;;;;;4944455;29;20259;-82
2023/07/03 10:01:00;;;;;;;9.68;9.38;;;22.10;99.90;;;;;;4948419;28;20254;-80
2023/07/03 10:03:31;;;;;;;10.20;9.90;;;22.20;99.90;;;;;;4948912;29;20303;-80
2023/07/03 10:06:05;;;;;;;9.90;9.60;;;22.10;99.90;;;;;;4947965;29;20235;-80
2023/07/03 10:08:32;;;;;;;9.75;9.45;;;22.00;99.90;;;;;;4948307;28;20235;-79
2023/07/03 10:11:03;;;;;;;9.60;9.30;;;22.00;99.90;;;;;;4948055;29;20290;-80
2023/07/03 10:13:35;;;;;;;9.50;9.20;;;22.00;99.90;;;;;;4948037;29;20253;-79
2023/07/03 10:16:07;;;;;;;9.43;9.13;;;22.10;99.90;;;;;;4948375;29;20227;-80
2023/07/03 10:18:37;;;;;;;9.43;9.13;;;22.20;99.90;;;;;;4947469;29;20250;-79
2023/07/03 10:21:08;;;;;;;9.63;9.32;;;22.40;99.90;;;;;;4948719;29;20244;-80
2023/07/03 10:23:40;;;;;;;9.85;9.55;;;22.40;99.90;;;;;;4948287;28;20310;-80
2023/07/03 10:26:17;;;;;;;10.02;9.73;;;22.70;99.90;;;;;;4951136;29;20242;-79
2023/07/03 10:28:50;;;;;;;10.10;9.80;;;22.80;99.90;;;;;;4944423;28;20243;-80
2023/07/03 10:31:24;;;;;;;10.10;9.80;;;22.80;99.90;;;;;;4946844;29;20299;-82
2023/07/03 10:34:01;;;;;;;10.00;9.70;;;22.80;99.90;;;;;;4945818;29;20242;-79
2023/07/03 10:36:30;;;;;;;9.70;9.40;;;22.60;99.90;;;;;;4946418;29;20227;-78
2023/07/03 10:39:07;;;;;;;10.10;9.80;;;22.40;99.90;;;;;;4946246;28;20265;-79
2023/07/03 10:41:42;;;;;;;9.90;9.60;;;22.40;99.90;;;;;;4948034;29;20240;-81
2023/07/03 10:44:17;;;;;;;9.82;9.52;;;22.70;99.90;;;;;;4947294;29;20238;-80
2023/07/03 10:46:53;;;;;;;9.57;9.27;;;23.10;99.90;;;;;;4946666;29;20298;-79
2023/07/03 10:49:28;;;;;;;9.88;9.57;;;23.80;99.90;;;;;;4944173;29;20297;-78
2023/07/03 10:52:11;;;;;;;9.88;9.57;;;23.60;99.90;;;;;;4944306;29;20290;-78
2023/07/03 10:54:47;;;;;;;10.15;9.85;;;23.10;99.90;;;;;;4944854;28;20316;-78
2023/07/03 10:57:23;;;;;;;10.20;9.90;;;22.70;99.90;;;;;;4945413;29;20241;-79
2023/07/03 10:59:56;;;;;;;10.10;9.80;;;22.50;99.90;;;;;;4944870;29;20234;-78
2023/07/03 11:02:35;;;;;;;9.60;9.30;;;22.60;99.90;;;;;;4945805;29;20293;-80
2023/07/03 11:05:13;;;;;;;10.10;9.80;;;22.90;99.90;;;;;;4949387;28;20237;-78
2023/07/03 11:07:50;;;;;;;9.90;9.60;;;23.10;99.90;;;;;;4945493;29;20242;-78
2023/07/03 11:10:26;;;;;;;9.73;9.43;;;23.10;99.90;;;;;;4945939;29;20334;-80
2023/07/03 11:13:03;;;;;;;10.07;9.77;;;23.60;99.90;;;;;;4945047;29;20253;-78
2023/07/03 11:15:41;;;;;;;9.80;9.50;;;24.00;99.90;;;;;;4944262;29;20245;-78
2023/07/03 11:18:39;;;;;;;10.05;9.75;;;23.80;99.90;;;;;;4943706;29;20246;-79
2023/07/03 11:21:15;;;;;;;10.00;9.70;;;23.90;99.90;;;;;;4943643;29;20246;-78
2023/07/03 11:23:55;;;;;;;10.23;9.93;;;23.90;99.90;;;;;;4946133;29;20242;-78
2023/07/03 11:26:38;;;;;;;9.90;9.60;;;24.30;99.90;;;;;;4953878;29;20218;-77
2023/07/03 11:29:11;;;;;;;10.02;9.73;;;24.40;99.90;;;;;;4957208;29;20337;-79
2023/07/03 11:31:46;;;;;;;9.80;9.50;;;24.40;99.90;;;;;;4945826;29;20216;-79
2023/07/03 11:34:17;;;;;;;9.80;9.50;;;24.70;99.90;;;;;;4942873;29;20277;-79
2023/07/03 11:36:50;;;;;;;10.02;9.73;;;24.80;99.90;;;;;;4944292;29;20235;-80
2023/07/03 11:39:21;;;;;;;10.18;9.88;;;24.40;99.90;;;;;;4943887;29;20242;-80
2023/07/03 11:41:54;;;;;;;10.35;10.05;;;24.20;99.90;;;;;;4944175;29;20232;-79
2023/07/03 11:44:31;;;;;;;10.27;9.98;;;24.10;99.90;;;;;;4944585;28;20238;-80
2023/07/03 11:47:02;;;;;;;10.20;9.90;;;24.30;99.90;;;;;;4941488;29;20234;-81
2023/07/03 11:49:39;;;;;;;9.90;9.60;;;24.80;99.90;;;;;;4944579;29;20253;-80
2023/07/03 11:52:12;;;;;;;10.40;10.10;;;24.80;99.90;;;;;;4944142;29;20226;-80
2023/07/03 11:54:40;;;;;;;10.10;9.80;;;24.90;99.90;;;;;;4943001;29;20246;-80
2023/07/03 11:57:31;;;;;;;10.20;9.90;;;24.80;99.90;;;;;;4948726;29;20255;-81
2023/07/03 12:00:19;;;;;;;10.10;9.80;;;24.60;99.90;;;;;;4951859;29;20235;-80
2023/07/03 12:02:58;;;;;;;9.90;9.60;;;24.60;99.90;;;;;;4953134;29;20246;-80
2023/07/03 12:05:56;;;;;;;10.00;9.70;;;24.80;99.90;;;;;;4950121;29;20250;-81
2023/07/03 12:08:42;;;;;;;9.75;9.45;;;25.00;99.90;;;;;;4950063;29;20242;-80
2023/07/03 12:11:14;;;;;;;10.30;10.00;;;25.00;99.90;;;;;;4945257;28;20235;-81
2023/07/03 12:13:59;;;;;;;10.50;10.20;;;24.80;99.90;;;;;;4944126;29;20243;-81
2023/07/03 12:16:32;;;;;;;10.07;9.77;;;24.70;99.90;;;;;;4944570;28;20234;-80
2023/07/03 12:19:27;;;;;;;;;;;;;;;;;;;;;
2023/07/03 12:21:57;;;;;;;10.60;10.30;;;24.60;99.90;;;;;;4990360;28;20251;-78
2023/07/03 12:24:30;;;;;;;10.55;10.25;;;25.00;99.90;;;;;;5008745;28;20205;-77
2023/07/03 12:27:02;;;;;;;10.73;10.43;;;25.40;99.90;;;;;;4993060;28;20702;-78
2023/07/03 12:29:31;;;;;;;10.30;10.00;;;25.50;99.90;;;;;;4987048;28;20241;-77
2023/07/03 12:32:05;;;;;;;10.25;9.95;;;25.50;99.90;;;;;;4999149;28;20236;-78
2023/07/03 12:34:35;;;;;;;10.30;10.00;;;25.20;99.90;;;;;;4996771;28;20235;-80
2023/07/03 12:37:10;;;;;;;9.98;9.68;;;24.40;99.90;;;;;;5001639;28;20244;-79
2023/07/03 12:39:37;;;;;;;10.18;9.88;;;24.50;99.90;;;;;;5000407;28;20243;-77
2023/07/03 12:42:14;;;;;;;10.02;9.73;;;24.70;99.90;;;;;;4998315;28;20236;-78
2023/07/03 12:44:42;;;;;;;10.18;9.88;;;25.10;99.90;;;;;;4996733;28;20229;-77
2023/07/03 12:47:13;;;;;;;10.00;9.70;;;25.10;99.90;;;;;;4996220;28;20724;-76
2023/07/03 12:49:59;;;;;;;10.35;10.05;;;25.10;99.90;;;;;;4988130;28;20343;-76
2023/07/03 12:52:32;;;;;;;10.20;9.90;;;24.80;99.90;;;;;;4996619;28;20236;-76
2023/07/03 12:55:01;;;;;;;10.35;10.05;;;24.30;99.90;;;;;;4997808;28;20293;-79
2023/07/03 12:57:34;;;;;;;10.50;10.20;;;24.30;99.90;;;;;;4999300;28;20324;-79